createdAt,value
2023-03-18T00:01:40.031Z,10.81
2023-03-18T00:04:08.287Z,10.70
2023-03-18T00:06:38.162Z,10.76
2023-03-18T00:09:07.051Z,10.95
2023-03-18T00:11:35.955Z,10.69
2023-03-18T00:14:04.522Z,10.85
2023-03-18T00:16:32.455Z,10.86
2023-03-18T00:19:02.006Z,10.82
2023-03-18T00:21:30.567Z,10.79
2023-03-18T00:23:58.973Z,10.78
2023-03-18T00:26:29.226Z,10.76
2023-03-18T00:28:58.291Z,10.81
2023-03-18T00:31:29.838Z,10.85
2023-03-18T00:33:58.992Z,10.90
2023-03-18T00:36:28.478Z,10.82
2023-03-18T00:38:58.322Z,10.89
2023-03-18T00:41:27.350Z,10.86
2023-03-18T00:43:56.616Z,10.88
2023-03-18T00:46:26.343Z,10.85
2023-03-18T00:48:56.485Z,10.74
2023-03-18T00:51:26.558Z,10.72
2023-03-18T00:53:57.765Z,10.26
2023-03-18T00:56:30.886Z,10.51
2023-03-18T00:59:00.078Z,10.54
2023-03-18T01:01:31.369Z,10.63
2023-03-18T01:04:01.122Z,10.69
2023-03-18T01:06:32.492Z,10.76
2023-03-18T01:09:02.670Z,10.73
2023-03-18T01:11:31.377Z,10.77
2023-03-18T01:14:00.644Z,10.82
2023-03-18T01:16:30.024Z,10.80
2023-03-18T01:18:58.382Z,10.80
2023-03-18T01:21:26.784Z,10.77
2023-03-18T01:24:00.479Z,10.75
2023-03-18T01:26:31.037Z,10.73
2023-03-18T01:29:00.961Z,10.56
2023-03-18T01:31:31.013Z,10.52
2023-03-18T01:34:05.696Z,10.59
2023-03-18T01:36:44.544Z,10.59
2023-03-18T01:39:12.572Z,10.56
2023-03-18T01:41:42.359Z,10.54
2023-03-18T01:44:14.894Z,10.64
2023-03-18T01:46:46.640Z,10.72
2023-03-18T01:49:19.098Z,10.74
2023-03-18T01:51:53.432Z,10.67
2023-03-18T01:54:23.917Z,10.66
2023-03-18T01:56:54.036Z,10.81
2023-03-18T01:59:26.419Z,10.32
2023-03-18T02:01:59.300Z,10.42
2023-03-18T02:04:33.630Z,10.28
2023-03-18T02:07:02.355Z,10.35
2023-03-18T02:09:30.894Z,10.37
2023-03-18T02:12:03.784Z,10.30
2023-03-18T02:14:32.425Z,10.38
2023-03-18T02:17:04.159Z,10.26
2023-03-18T02:19:51.688Z,10.28
2023-03-18T02:22:27.505Z,10.53
2023-03-18T02:25:11.143Z,10.62
2023-03-18T02:27:42.808Z,10.57
2023-03-18T02:30:15.652Z,10.57
2023-03-18T02:32:48.368Z,10.48
2023-03-18T02:35:16.280Z,10.37
2023-03-18T02:37:44.325Z,10.00
2023-03-18T02:40:19.771Z,10.09
2023-03-18T02:42:49.951Z,10.13
2023-03-18T02:45:31.787Z,10.37
2023-03-18T02:48:18.416Z,10.41
2023-03-18T02:50:50.092Z,10.38
2023-03-18T02:53:21.139Z,10.22
2023-03-18T02:55:49.086Z,10.20
2023-03-18T02:58:18.624Z,10.28
2023-03-18T03:00:47.982Z,10.13
2023-03-18T03:03:16.497Z,10.08
2023-03-18T03:05:44.445Z,10.06
2023-03-18T03:08:12.528Z,9.97
2023-03-18T03:10:43.689Z,9.88
2023-03-18T03:13:12.135Z,9.90
2023-03-18T03:15:42.833Z,9.92
2023-03-18T03:18:11.597Z,10.07
2023-03-18T03:20:39.681Z,10.03
2023-03-18T03:23:09.974Z,9.86
2023-03-18T03:25:38.769Z,9.67
2023-03-18T03:28:07.446Z,9.80
2023-03-18T03:30:36.804Z,9.56
2023-03-18T03:33:06.457Z,9.64
2023-03-18T03:35:34.604Z,9.73
2023-03-18T03:38:03.081Z,9.59
2023-03-18T03:40:32.020Z,9.55
2023-03-18T03:43:00.091Z,9.70
2023-03-18T03:45:28.760Z,9.41
2023-03-18T03:47:57.840Z,9.55
2023-03-18T03:50:27.350Z,9.20
2023-03-18T03:52:56.410Z,9.28
2023-03-18T03:55:25.398Z,9.44
2023-03-18T03:57:56.643Z,9.53
2023-03-18T04:00:26.113Z,9.61
2023-03-18T04:02:54.403Z,9.62
2023-03-18T04:05:25.611Z,9.47
2023-03-18T04:07:55.511Z,9.47
2023-03-18T04:10:36.526Z,9.54
2023-03-18T04:13:06.293Z,9.48
2023-03-18T04:15:34.979Z,9.24
2023-03-18T04:18:10.677Z,9.14
2023-03-18T04:20:39.870Z,9.21
2023-03-18T04:23:17.690Z,9.27
2023-03-18T04:25:45.653Z,9.12
2023-03-18T04:28:14.157Z,9.18
2023-03-18T04:30:42.248Z,9.05
2023-03-18T04:33:15.221Z,8.90
2023-03-18T04:35:43.925Z,8.28
2023-03-18T04:38:13.956Z,8.24
2023-03-18T04:40:43.891Z,8.57
2023-03-18T04:43:11.804Z,8.10
2023-03-18T04:45:40.251Z,7.84
2023-03-18T04:48:08.372Z,7.99
2023-03-18T04:50:40.850Z,8.33
2023-03-18T04:53:12.760Z,7.99
2023-03-18T04:55:41.180Z,8.08
2023-03-18T04:58:12.817Z,8.38
2023-03-18T05:00:46.166Z,8.46
2023-03-18T05:03:22.900Z,8.62
2023-03-18T05:05:51.453Z,8.56
2023-03-18T05:08:24.067Z,8.35
2023-03-18T05:10:53.441Z,8.29
2023-03-18T05:13:22.780Z,8.01
2023-03-18T05:15:50.796Z,8.19
2023-03-18T05:18:19.246Z,8.36
2023-03-18T05:20:50.427Z,8.32
2023-03-18T05:23:19.978Z,8.43
2023-03-18T05:25:54.769Z,8.32
2023-03-18T05:28:27.045Z,8.41
2023-03-18T05:31:24.770Z,8.46
2023-03-18T05:33:53.758Z,8.43
2023-03-18T05:36:26.544Z,8.36
2023-03-18T05:39:01.118Z,8.31
2023-03-18T05:41:29.305Z,8.04
2023-03-18T05:43:59.314Z,8.00
2023-03-18T05:46:29.020Z,8.07
2023-03-18T05:49:13.316Z,8.00
2023-03-18T05:51:54.380Z,7.99
2023-03-18T05:54:34.011Z,7.97
2023-03-18T05:57:02.448Z,7.71
2023-03-18T05:59:32.023Z,7.97
2023-03-18T06:02:01.686Z,7.80
2023-03-18T06:04:29.814Z,8.04
2023-03-18T06:06:58.489Z,7.97
2023-03-18T06:09:27.285Z,8.00
2023-03-18T06:11:55.370Z,8.12
2023-03-18T06:14:29.284Z,8.14
2023-03-18T06:17:02.268Z,8.18
2023-03-18T06:19:31.873Z,8.23
2023-03-18T06:21:59.851Z,8.21
2023-03-18T06:24:28.691Z,8.18
2023-03-18T06:26:57.881Z,8.21
2023-03-18T06:29:26.693Z,8.14
2023-03-18T06:31:58.508Z,8.24
2023-03-18T06:34:29.143Z,8.35
2023-03-18T06:36:59.608Z,8.39
2023-03-18T06:39:28.612Z,8.42
2023-03-18T06:41:57.801Z,8.48
2023-03-18T06:44:32.093Z,8.51
2023-03-18T06:47:09.945Z,8.54
2023-03-18T06:49:44.668Z,8.61
2023-03-18T06:52:19.348Z,8.67
2023-03-18T06:54:49.442Z,8.64
2023-03-18T06:57:18.734Z,8.48
2023-03-18T06:59:48.472Z,8.43
2023-03-18T07:02:17.906Z,8.42
2023-03-18T07:04:48.377Z,8.80
2023-03-18T07:07:16.982Z,8.96
2023-03-18T07:09:45.917Z,9.36
2023-03-18T07:12:14.986Z,9.69
2023-03-18T07:14:45.351Z,9.97
2023-03-18T07:17:14.643Z,10.18
2023-03-18T07:19:42.999Z,9.87
2023-03-18T07:22:17.290Z,9.78
2023-03-18T07:24:46.797Z,9.90
2023-03-18T07:27:16.919Z,10.26
2023-03-18T07:29:45.126Z,10.99
2023-03-18T07:32:14.030Z,11.01
2023-03-18T07:34:44.659Z,11.06
2023-03-18T07:37:13.626Z,11.51
2023-03-18T07:39:43.619Z,11.88
2023-03-18T07:42:13.080Z,12.60
2023-03-18T07:44:46.978Z,12.72
2023-03-18T07:47:15.973Z,13.06
2023-03-18T07:52:55.429Z,13.29
2023-03-18T07:56:20.209Z,14.01
2023-03-18T07:58:49.609Z,14.42
2023-03-18T08:01:18.534Z,14.18
2023-03-18T08:04:16.767Z,14.67
2023-03-18T08:06:52.609Z,14.79
2023-03-18T08:09:21.467Z,15.38
2023-03-18T08:11:49.746Z,15.20
2023-03-18T08:14:19.130Z,15.77
2023-03-18T08:16:47.258Z,16.40
2023-03-18T08:19:15.263Z,16.36
2023-03-18T08:21:44.465Z,15.98
2023-03-18T08:24:13.021Z,15.49
2023-03-18T08:26:41.199Z,16.39
2023-03-18T08:29:09.380Z,16.52
2023-03-18T08:31:39.243Z,16.93
2023-03-18T08:34:08.213Z,17.52
2023-03-18T08:36:36.986Z,17.45
2023-03-18T08:39:05.931Z,18.11
2023-03-18T08:41:33.818Z,18.11
2023-03-18T08:44:11.033Z,16.49
2023-03-18T08:46:54.229Z,18.10
2023-03-18T08:49:29.183Z,17.91
2023-03-18T08:52:01.791Z,16.68
2023-03-18T08:54:30.196Z,17.51
2023-03-18T08:57:02.993Z,17.70
2023-03-18T08:59:32.329Z,17.27
2023-03-18T09:02:09.643Z,17.95
2023-03-18T09:04:39.137Z,19.06
2023-03-18T09:07:12.751Z,18.86
2023-03-18T09:09:44.082Z,17.78
2023-03-18T09:12:14.212Z,18.80
2023-03-18T09:14:45.137Z,19.28
2023-03-18T09:17:15.888Z,19.72
2023-03-18T09:19:44.878Z,19.47
2023-03-18T09:22:13.532Z,19.40
2023-03-18T09:24:42.980Z,20.03
2023-03-18T09:27:12.025Z,20.13
2023-03-18T09:29:40.604Z,20.12
2023-03-18T09:32:09.405Z,19.30
2023-03-18T09:34:39.289Z,20.42
2023-03-18T09:37:08.082Z,20.43
2023-03-18T09:39:38.420Z,20.73
2023-03-18T09:42:37.662Z,19.54
2023-03-18T09:45:26.628Z,19.85
2023-03-18T09:48:11.227Z,20.12
2023-03-18T09:50:48.694Z,19.35
2023-03-18T09:53:23.701Z,19.90
2023-03-18T09:56:02.012Z,19.65
2023-03-18T09:58:38.001Z,20.86
2023-03-18T10:01:09.687Z,21.07
2023-03-18T10:03:47.760Z,19.99
2023-03-18T10:06:32.966Z,19.97
2023-03-18T10:09:09.843Z,20.78
2023-03-18T10:11:44.420Z,21.05
2023-03-18T10:14:44.635Z,20.65
2023-03-18T10:17:20.846Z,19.13
2023-03-18T10:19:53.665Z,19.10
2023-03-18T10:22:51.800Z,19.27
2023-03-18T10:25:29.337Z,19.74
2023-03-18T10:28:17.849Z,19.63
2023-03-18T10:30:57.752Z,20.09
2023-03-18T10:33:38.708Z,20.50
2023-03-18T10:36:14.519Z,21.27
2023-03-18T10:38:51.919Z,21.39
2023-03-18T10:41:25.912Z,21.19
2023-03-18T10:43:56.453Z,20.70
2023-03-18T10:46:26.932Z,21.54
2023-03-18T10:48:59.703Z,21.95
2023-03-18T10:51:34.978Z,19.45
2023-03-18T10:54:15.244Z,20.89
2023-03-18T10:57:13.364Z,20.36
2023-03-18T11:00:08.064Z,21.15
2023-03-18T11:02:41.509Z,21.25
2023-03-18T11:05:23.426Z,21.01
2023-03-18T11:08:01.293Z,20.82
2023-03-18T11:10:40.567Z,20.72
2023-03-18T11:13:25.077Z,21.47
2023-03-18T11:15:56.714Z,21.84
2023-03-18T11:18:30.076Z,21.70
2023-03-18T11:21:01.285Z,21.94
2023-03-18T11:23:51.035Z,21.89
2023-03-18T11:26:25.136Z,21.96
2023-03-18T11:28:56.348Z,21.87
2023-03-18T11:31:24.491Z,22.58
2023-03-18T11:33:58.886Z,22.22
2023-03-18T11:36:33.078Z,22.22
2023-03-18T11:39:05.534Z,20.75
2023-03-18T11:41:39.043Z,22.26
2023-03-18T11:44:09.744Z,21.80
2023-03-18T11:46:45.471Z,21.74
2023-03-18T11:49:19.846Z,22.02
2023-03-18T11:52:43.439Z,21.52
2023-03-18T11:55:33.923Z,22.08
2023-03-18T11:58:35.093Z,22.14
2023-03-18T12:01:11.044Z,22.11
2023-03-18T12:04:01.754Z,22.37
2023-03-18T12:06:43.751Z,22.54
2023-03-18T12:09:23.469Z,23.22
2023-03-18T12:12:06.767Z,23.32
2023-03-18T12:14:47.755Z,23.56
2023-03-18T12:17:32.960Z,23.18
2023-03-18T12:20:42.397Z,23.21
2023-03-18T12:23:37.531Z,23.30
2023-03-18T12:26:09.589Z,22.80
2023-03-18T12:28:52.550Z,22.74
2023-03-18T12:31:47.349Z,23.08
2023-03-18T12:34:32.114Z,22.89
2023-03-18T12:37:13.313Z,23.26
2023-03-18T12:40:02.721Z,22.46
2023-03-18T12:42:47.905Z,22.91
2023-03-18T12:45:20.703Z,23.38
2023-03-18T12:47:56.388Z,23.65
2023-03-18T12:50:27.891Z,23.24
2023-03-18T12:53:01.879Z,23.75
2023-03-18T12:55:32.826Z,24.11
2023-03-18T12:58:04.579Z,23.15
2023-03-18T13:00:40.280Z,22.89
2023-03-18T13:03:23.583Z,23.05
2023-03-18T13:05:57.127Z,23.18
2023-03-18T13:08:47.510Z,23.16
2023-03-18T13:11:33.204Z,22.03
2023-03-18T13:14:09.047Z,22.83
2023-03-18T13:16:39.459Z,22.62
2023-03-18T13:19:11.250Z,23.01
2023-03-18T13:21:44.749Z,23.45
2023-03-18T13:24:34.222Z,22.48
2023-03-18T13:27:19.660Z,22.34
2023-03-18T13:29:56.021Z,22.28
2023-03-18T13:32:43.552Z,21.84
2023-03-18T13:35:33.561Z,22.49
2023-03-18T13:38:12.159Z,22.58
2023-03-18T13:40:52.362Z,21.45
2023-03-18T13:43:29.020Z,21.30
2023-03-18T13:46:01.539Z,21.38
2023-03-18T13:48:32.026Z,21.89
2023-03-18T13:51:19.381Z,21.73
2023-03-18T13:53:50.614Z,22.12
2023-03-18T13:56:29.938Z,21.86
2023-03-18T13:58:58.078Z,22.04
2023-03-18T14:01:33.214Z,21.78
2023-03-18T14:04:20.414Z,22.16
2023-03-18T14:06:59.485Z,21.72
2023-03-18T14:09:47.222Z,22.01
2023-03-18T14:12:21.756Z,22.04
2023-03-18T14:15:06.159Z,21.71
2023-03-18T14:17:48.807Z,21.92
2023-03-18T14:20:27.275Z,21.64
2023-03-18T14:22:58.782Z,21.56
2023-03-18T14:25:43.474Z,22.11
2023-03-18T14:28:20.987Z,21.82
2023-03-18T14:31:14.653Z,21.83
2023-03-18T14:33:54.141Z,21.51
2023-03-18T14:36:40.658Z,21.36
2023-03-18T14:39:15.302Z,20.91
2023-03-18T14:41:46.734Z,21.19
2023-03-18T14:44:23.176Z,21.68
2023-03-18T14:46:56.335Z,22.32
2023-03-18T14:49:35.927Z,22.21
2023-03-18T14:52:14.200Z,22.17
2023-03-18T14:54:46.118Z,21.93
2023-03-18T14:57:14.241Z,22.28
2023-03-18T14:59:42.960Z,22.23
2023-03-18T15:02:23.805Z,22.41
2023-03-18T15:04:54.525Z,22.76
2023-03-18T15:07:26.652Z,22.52
2023-03-18T15:09:57.060Z,22.80
2023-03-18T15:12:30.753Z,22.79
2023-03-18T15:14:58.986Z,22.24
2023-03-18T15:17:28.480Z,22.00
2023-03-18T15:20:00.435Z,22.04
2023-03-18T15:22:32.357Z,21.44
2023-03-18T15:25:08.495Z,21.25
2023-03-18T15:27:37.673Z,20.71
2023-03-18T15:30:11.640Z,21.12
2023-03-18T15:32:46.149Z,20.83
2023-03-18T15:35:18.452Z,20.61
2023-03-18T15:37:48.179Z,20.58
2023-03-18T15:40:28.294Z,20.34
2023-03-18T15:42:58.197Z,19.84
2023-03-18T15:45:29.671Z,20.23
2023-03-18T15:47:59.501Z,20.35
2023-03-18T15:50:30.344Z,19.99
2023-03-18T15:53:21.691Z,20.47
2023-03-18T15:55:53.079Z,19.33
2023-03-18T15:58:26.289Z,19.83
2023-03-18T16:00:56.394Z,19.71
2023-03-18T16:03:26.476Z,19.34
2023-03-18T16:05:56.962Z,19.53
2023-03-18T16:08:26.042Z,20.05
2023-03-18T16:10:58.601Z,20.34
2023-03-18T16:13:29.804Z,19.89
2023-03-18T16:15:58.422Z,19.90
2023-03-18T16:18:27.207Z,19.79
2023-03-18T16:20:55.165Z,19.32
2023-03-18T16:23:23.242Z,19.55
2023-03-18T16:25:54.528Z,19.28
2023-03-18T16:28:25.301Z,19.74
2023-03-18T16:30:56.074Z,19.59
2023-03-18T16:33:26.206Z,19.65
2023-03-18T16:35:58.234Z,19.24
2023-03-18T16:38:28.415Z,19.26
2023-03-18T16:40:59.196Z,19.55
2023-03-18T16:43:32.168Z,19.47
2023-03-18T16:46:03.860Z,19.55
2023-03-18T16:48:37.686Z,18.87
2023-03-18T16:51:09.607Z,19.26
2023-03-18T16:53:38.321Z,19.41
2023-03-18T16:56:17.029Z,19.79
2023-03-18T16:58:48.212Z,19.94
2023-03-18T17:01:26.644Z,19.96
2023-03-18T17:03:58.506Z,19.97
2023-03-18T17:06:29.489Z,19.94
2023-03-18T17:08:58.523Z,19.60
2023-03-18T17:11:29.536Z,19.72
2023-03-18T17:14:01.278Z,19.69
2023-03-18T17:16:32.016Z,19.46
2023-03-18T17:19:23.179Z,19.56
2023-03-18T17:22:22.782Z,19.43
2023-03-18T17:29:29.482Z,19.22
2023-03-18T17:31:58.237Z,19.31
2023-03-18T17:34:27.575Z,19.26
2023-03-18T17:36:56.565Z,19.21
2023-03-18T17:42:43.997Z,18.72
2023-03-18T17:45:24.562Z,18.72
2023-03-18T17:48:19.895Z,18.82
2023-03-18T17:50:49.994Z,18.76
2023-03-18T17:53:40.195Z,18.43
2023-03-18T17:56:17.285Z,17.92
2023-03-18T17:58:48.036Z,17.25
2023-03-18T18:01:30.363Z,17.38
2023-03-18T18:04:26.151Z,17.88
2023-03-18T18:06:54.420Z,17.98
2023-03-18T18:09:23.341Z,18.04
2023-03-18T18:11:51.396Z,18.04
2023-03-18T18:14:22.590Z,17.92
2023-03-18T18:16:53.580Z,17.92
2023-03-18T18:19:22.902Z,18.01
2023-03-18T18:21:51.556Z,17.62
2023-03-18T18:24:26.958Z,17.17
2023-03-18T18:26:55.554Z,17.10
2023-03-18T18:29:27.035Z,17.45
2023-03-18T18:31:58.921Z,17.63
2023-03-18T18:34:26.740Z,17.27
2023-03-18T18:36:54.693Z,17.39
2023-03-18T18:39:22.678Z,17.50
2023-03-18T18:41:51.194Z,17.50
2023-03-18T18:44:19.117Z,17.34
2023-03-18T18:46:47.168Z,17.24
2023-03-18T18:49:22.312Z,17.31
2023-03-18T18:51:50.641Z,17.29
2023-03-18T18:54:19.567Z,17.35
2023-03-18T18:56:48.671Z,17.34
2023-03-18T18:59:24.802Z,17.31
2023-03-18T19:01:52.995Z,17.29
2023-03-18T19:04:24.941Z,17.22
2023-03-18T19:06:54.821Z,17.16
2023-03-18T19:09:25.906Z,17.06
2023-03-18T19:11:56.146Z,16.46
2023-03-18T19:14:26.656Z,16.15
2023-03-18T19:16:58.363Z,15.97
2023-03-18T19:19:30.118Z,15.80
2023-03-18T19:21:58.864Z,15.73
2023-03-18T19:24:32.479Z,15.56
2023-03-18T19:27:04.467Z,15.51
2023-03-18T19:29:33.196Z,15.51
2023-03-18T19:32:01.448Z,15.40
2023-03-18T19:34:34.119Z,15.35
2023-03-18T19:37:05.828Z,15.34
2023-03-18T19:39:35.037Z,15.33
2023-03-18T19:42:02.957Z,15.29
2023-03-18T19:44:31.011Z,15.18
2023-03-18T19:47:01.342Z,14.99
2023-03-18T19:49:40.961Z,14.93
2023-03-18T19:52:19.640Z,14.93
2023-03-18T19:54:50.444Z,14.74
2023-03-18T19:57:28.119Z,14.81
2023-03-18T19:59:57.942Z,14.84
2023-03-18T20:02:57.552Z,14.87
2023-03-18T20:05:27.693Z,14.86
2023-03-18T20:08:05.698Z,14.86
2023-03-18T20:10:34.708Z,14.82
2023-03-18T20:13:04.311Z,14.79
2023-03-18T20:15:36.198Z,14.76
2023-03-18T20:18:23.884Z,14.68
2023-03-18T20:21:35.421Z,14.60
2023-03-18T20:24:09.076Z,14.52
2023-03-18T20:26:54.578Z,14.50
2023-03-18T20:29:25.396Z,14.46
2023-03-18T20:32:05.214Z,14.38
2023-03-18T20:34:50.045Z,14.29
2023-03-18T20:37:31.972Z,14.23
2023-03-18T20:40:01.153Z,14.06
2023-03-18T20:42:31.806Z,14.02
2023-03-18T20:45:00.537Z,14.02
2023-03-18T20:47:28.711Z,14.03
2023-03-18T20:49:56.747Z,14.02
2023-03-18T20:52:29.897Z,13.98
2023-03-18T20:54:59.152Z,13.98
2023-03-18T20:57:28.183Z,13.93
2023-03-18T20:59:59.037Z,13.77
2023-03-18T21:02:31.235Z,13.82
2023-03-18T21:05:01.017Z,13.80
2023-03-18T21:07:32.471Z,13.74
2023-03-18T21:10:00.723Z,13.66
2023-03-18T21:12:29.009Z,13.27
2023-03-18T21:14:57.020Z,13.21
2023-03-18T21:17:26.496Z,13.43
2023-03-18T21:20:00.662Z,13.50
2023-03-18T21:22:34.454Z,13.59
2023-03-18T21:25:03.371Z,13.61
2023-03-18T21:27:31.469Z,13.49
2023-03-18T21:29:59.286Z,13.32
2023-03-18T21:32:29.787Z,13.35
2023-03-18T21:34:57.880Z,13.36
2023-03-18T21:37:28.294Z,13.40
2023-03-18T21:39:58.130Z,13.40
2023-03-18T21:42:28.380Z,13.21
2023-03-18T21:44:57.422Z,13.29
2023-03-18T21:47:27.481Z,13.26
2023-03-18T21:49:55.508Z,13.26
2023-03-18T21:52:29.624Z,13.24
2023-03-18T21:55:00.094Z,13.16
2023-03-18T21:57:28.646Z,13.12
2023-03-18T21:59:56.988Z,13.12
2023-03-18T22:02:30.682Z,13.10
2023-03-18T22:05:02.373Z,13.14
2023-03-18T22:07:32.060Z,13.10
2023-03-18T22:10:01.894Z,12.95
2023-03-18T22:12:31.313Z,12.87
2023-03-18T22:15:00.872Z,12.79
2023-03-18T22:17:30.962Z,12.76
2023-03-18T22:20:01.316Z,12.58
2023-03-18T22:22:36.701Z,12.64
2023-03-18T22:25:09.036Z,12.62
2023-03-18T22:27:37.246Z,12.64
2023-03-18T22:30:06.075Z,12.69
2023-03-18T22:32:39.105Z,11.95
2023-03-18T22:35:13.779Z,11.91
2023-03-18T22:37:42.154Z,12.03
2023-03-18T22:40:18.047Z,12.07
2023-03-18T22:42:47.506Z,12.24
2023-03-18T22:45:24.305Z,12.30
2023-03-18T22:47:53.825Z,12.23
2023-03-18T22:50:22.829Z,11.92
2023-03-18T22:52:53.079Z,11.84
2023-03-18T22:55:24.821Z,11.96
2023-03-18T22:57:53.170Z,11.71
2023-03-18T23:00:26.154Z,11.85
2023-03-18T23:02:55.514Z,11.92
2023-03-18T23:05:24.940Z,11.95
2023-03-18T23:07:54.174Z,11.99
2023-03-18T23:10:24.686Z,11.98
2023-03-18T23:12:52.970Z,11.54
2023-03-18T23:15:23.784Z,11.76
2023-03-18T23:17:51.649Z,11.79
2023-03-18T23:20:20.060Z,11.79
2023-03-18T23:22:47.969Z,11.78
2023-03-18T23:25:18.000Z,11.78
2023-03-18T23:27:48.219Z,11.77
2023-03-18T23:30:16.844Z,11.67
2023-03-18T23:32:45.616Z,11.61
2023-03-18T23:35:14.456Z,11.69
2023-03-18T23:37:42.734Z,11.67
2023-03-18T23:40:11.721Z,11.58
2023-03-18T23:42:39.585Z,11.31
2023-03-18T23:45:10.141Z,11.35
2023-03-18T23:47:38.331Z,11.45
2023-03-18T23:50:07.661Z,11.55
2023-03-18T23:52:37.150Z,11.57
2023-03-18T23:55:14.689Z,11.62
2023-03-18T23:57:51.145Z,11.57
